createdAt,value
2017-08-22T00:01:08.199Z,16.46
2017-08-22T00:03:40.390Z,16.40
2017-08-22T00:06:07.815Z,16.43
2017-08-22T00:08:35.207Z,16.41
2017-08-22T00:11:02.812Z,16.30
2017-08-22T00:13:30.203Z,16.28
2017-08-22T00:15:57.591Z,16.30
2017-08-22T00:18:24.994Z,16.41
2017-08-22T00:20:52.378Z,16.48
2017-08-22T00:23:19.774Z,16.38
2017-08-22T00:25:47.162Z,16.40
2017-08-22T00:28:14.563Z,16.42
2017-08-22T00:30:41.946Z,16.50
2017-08-22T00:33:09.339Z,16.49
2017-08-22T00:35:36.726Z,16.51
2017-08-22T00:38:04.131Z,16.51
2017-08-22T00:40:31.515Z,16.53
2017-08-22T00:42:58.915Z,16.52
2017-08-22T00:45:26.306Z,16.47
2017-08-22T00:47:53.691Z,16.40
2017-08-22T00:50:21.083Z,16.42
2017-08-22T00:52:48.483Z,16.22
2017-08-22T00:55:15.883Z,16.21
2017-08-22T00:57:43.263Z,16.18
2017-08-22T01:00:10.657Z,16.18
2017-08-22T01:02:38.042Z,16.20
2017-08-22T01:05:05.442Z,16.27
2017-08-22T01:07:32.822Z,16.21
2017-08-22T01:10:00.227Z,16.14
2017-08-22T01:12:27.616Z,15.99
2017-08-22T01:14:55.023Z,15.86
2017-08-22T01:17:22.407Z,15.81
2017-08-22T01:19:50.015Z,15.74
2017-08-22T01:22:17.424Z,15.85
2017-08-22T01:24:44.840Z,15.75
2017-08-22T01:27:12.227Z,15.74
2017-08-22T01:29:39.612Z,15.74
2017-08-22T01:32:07.011Z,15.68
2017-08-22T01:34:34.401Z,15.75
2017-08-22T01:37:01.791Z,15.66
2017-08-22T01:39:29.195Z,15.67
2017-08-22T01:41:56.589Z,15.69
2017-08-22T01:44:24.186Z,15.70
2017-08-22T01:46:51.587Z,15.73
2017-08-22T01:49:18.967Z,15.67
2017-08-22T01:51:46.362Z,15.63
2017-08-22T01:54:13.751Z,15.63
2017-08-22T01:56:41.138Z,15.67
2017-08-22T01:59:08.522Z,15.71
2017-08-22T02:01:36.016Z,15.66
2017-08-22T02:04:03.382Z,15.82
2017-08-22T02:06:30.775Z,15.75
2017-08-22T02:08:58.172Z,15.78
2017-08-22T02:11:25.555Z,15.78
2017-08-22T02:13:52.954Z,15.80
2017-08-22T02:16:20.347Z,15.89
2017-08-22T02:18:47.747Z,15.88
2017-08-22T02:21:15.143Z,15.87
2017-08-22T02:23:42.546Z,15.88
2017-08-22T02:26:09.943Z,15.91
2017-08-22T02:28:37.344Z,15.85
2017-08-22T02:31:04.735Z,15.83
2017-08-22T02:33:32.134Z,15.64
2017-08-22T02:35:59.514Z,15.57
2017-08-22T02:38:26.926Z,15.51
2017-08-22T02:40:54.307Z,15.54
2017-08-22T02:43:21.710Z,15.59
2017-08-22T02:45:49.094Z,15.65
2017-08-22T02:48:16.500Z,15.63
2017-08-22T02:50:43.882Z,15.64
2017-08-22T02:53:11.277Z,15.66
2017-08-22T02:55:38.667Z,15.57
2017-08-22T02:58:06.054Z,15.57
2017-08-22T03:00:33.455Z,15.51
2017-08-22T03:03:00.843Z,15.51
2017-08-22T03:05:28.234Z,15.39
2017-08-22T03:07:55.635Z,15.37
2017-08-22T03:10:23.027Z,15.40
2017-08-22T03:12:50.420Z,15.49
2017-08-22T03:15:17.818Z,15.41
2017-08-22T03:17:45.203Z,15.26
2017-08-22T03:20:12.619Z,15.28
2017-08-22T03:22:40.010Z,15.16
2017-08-22T03:25:07.398Z,15.17
2017-08-22T03:27:34.799Z,15.16
2017-08-22T03:30:02.192Z,15.13
2017-08-22T03:32:29.587Z,15.08
2017-08-22T03:34:56.992Z,15.10
2017-08-22T03:37:24.396Z,15.08
2017-08-22T03:39:51.791Z,15.05
2017-08-22T03:42:19.206Z,15.07
2017-08-22T03:44:46.596Z,15.01
2017-08-22T03:47:13.989Z,15.01
2017-08-22T03:49:41.375Z,15.07
2017-08-22T03:52:08.779Z,15.06
2017-08-22T03:54:36.171Z,15.13
2017-08-22T03:57:03.783Z,15.22
2017-08-22T03:59:31.175Z,15.19
2017-08-22T04:01:58.567Z,15.28
2017-08-22T04:04:25.955Z,15.20
2017-08-22T04:06:53.366Z,15.21
2017-08-22T04:09:20.793Z,15.18
2017-08-22T04:11:48.184Z,15.22
2017-08-22T04:14:15.585Z,15.21
2017-08-22T04:16:42.979Z,15.27
2017-08-22T04:19:10.376Z,15.23
2017-08-22T04:21:37.788Z,15.10
2017-08-22T04:24:05.185Z,14.90
2017-08-22T04:26:32.608Z,14.72
2017-08-22T04:29:00.007Z,14.67
2017-08-22T04:31:27.406Z,14.82
2017-08-22T04:33:54.794Z,14.82
2017-08-22T04:36:22.222Z,14.79
2017-08-22T04:38:49.618Z,14.87
2017-08-22T04:41:17.007Z,14.76
2017-08-22T04:43:44.424Z,14.77
2017-08-22T04:46:11.815Z,14.80
2017-08-22T04:48:39.211Z,14.84
2017-08-22T04:51:06.624Z,14.83
2017-08-22T04:53:34.034Z,14.80
2017-08-22T04:56:01.431Z,14.81
2017-08-22T04:58:28.840Z,14.67
2017-08-22T05:00:56.230Z,14.70
2017-08-22T05:03:23.618Z,14.76
2017-08-22T05:05:51.071Z,14.65
2017-08-22T05:08:18.450Z,14.61
2017-08-22T05:10:45.859Z,14.56
2017-08-22T05:13:13.277Z,14.64
2017-08-22T05:15:40.670Z,14.65
2017-08-22T05:18:08.087Z,14.70
2017-08-22T05:20:35.475Z,14.68
2017-08-22T05:23:02.897Z,14.64
2017-08-22T05:25:30.286Z,14.61
2017-08-22T05:27:57.921Z,14.74
2017-08-22T05:30:25.306Z,14.79
2017-08-22T05:32:52.710Z,14.80
2017-08-22T05:35:20.102Z,14.79
2017-08-22T05:37:47.512Z,14.71
2017-08-22T05:40:14.898Z,14.70
2017-08-22T05:42:42.294Z,14.69
2017-08-22T05:45:09.686Z,14.71
2017-08-22T05:47:37.078Z,14.80
2017-08-22T05:50:04.471Z,14.82
2017-08-22T05:52:31.887Z,14.93
2017-08-22T05:54:59.283Z,14.96
2017-08-22T05:57:26.675Z,14.94
2017-08-22T05:59:54.063Z,14.96
2017-08-22T06:02:21.699Z,15.02
2017-08-22T06:04:49.098Z,15.03
2017-08-22T06:07:16.486Z,15.09
2017-08-22T06:09:44.094Z,15.12
2017-08-22T06:12:11.488Z,15.18
2017-08-22T06:14:38.891Z,15.28
2017-08-22T06:17:06.275Z,15.36
2017-08-22T06:19:33.883Z,15.41
2017-08-22T06:22:01.291Z,15.44
2017-08-22T06:24:28.688Z,15.49
2017-08-22T06:26:56.075Z,15.40
2017-08-22T06:29:23.479Z,15.63
2017-08-22T06:31:50.880Z,15.66
2017-08-22T06:34:18.282Z,15.63
2017-08-22T06:36:45.677Z,15.57
2017-08-22T06:39:13.072Z,15.53
2017-08-22T06:41:40.472Z,15.53
2017-08-22T06:44:08.099Z,15.59
2017-08-22T06:46:35.699Z,15.53
2017-08-22T06:49:03.099Z,15.50
2017-08-22T06:51:30.503Z,15.53
2017-08-22T06:53:57.903Z,15.62
2017-08-22T06:56:25.291Z,15.74
2017-08-22T06:58:52.692Z,15.75
2017-08-22T07:01:20.091Z,15.72
2017-08-22T07:03:47.479Z,15.72
2017-08-22T07:06:14.892Z,15.84
2017-08-22T07:08:42.513Z,15.71
2017-08-22T07:11:09.919Z,15.79
2017-08-22T07:13:37.302Z,15.89
2017-08-22T07:16:04.706Z,15.86
2017-08-22T07:18:32.104Z,15.92
2017-08-22T07:20:59.506Z,16.04
2017-08-22T07:23:26.912Z,16.02
2017-08-22T07:25:54.326Z,15.98
2017-08-22T07:28:21.721Z,16.05
2017-08-22T07:30:49.130Z,16.19
2017-08-22T07:33:16.527Z,16.19
2017-08-22T07:35:43.935Z,16.25
2017-08-22T07:38:11.327Z,16.39
2017-08-22T07:40:38.935Z,16.50
2017-08-22T07:43:06.329Z,16.60
2017-08-22T07:45:33.714Z,16.66
2017-08-22T07:48:01.102Z,16.64
2017-08-22T07:50:28.522Z,16.78
2017-08-22T07:52:55.915Z,16.84
2017-08-22T07:55:23.310Z,16.89
2017-08-22T07:57:50.706Z,16.97
2017-08-22T08:00:18.099Z,16.94
2017-08-22T08:02:45.492Z,17.06
2017-08-22T08:05:12.882Z,17.16
2017-08-22T08:07:40.275Z,17.18
2017-08-22T08:10:07.682Z,17.34
2017-08-22T08:12:35.088Z,17.28
2017-08-22T08:15:02.476Z,17.23
2017-08-22T08:17:29.874Z,17.25
2017-08-22T08:19:57.273Z,17.43
2017-08-22T08:22:24.658Z,17.53
2017-08-22T08:24:52.047Z,17.52
2017-08-22T08:27:19.455Z,17.66
2017-08-22T08:29:47.071Z,17.59
2017-08-22T08:32:14.465Z,17.66
2017-08-22T08:34:41.867Z,17.59
2017-08-22T08:37:09.246Z,17.63
2017-08-22T08:39:36.643Z,17.77
2017-08-22T08:42:04.053Z,17.80
2017-08-22T08:44:31.427Z,18.01
2017-08-22T08:46:59.031Z,18.15
2017-08-22T08:49:26.422Z,18.15
2017-08-22T08:51:53.811Z,18.14
2017-08-22T08:54:21.210Z,18.15
2017-08-22T08:56:48.598Z,18.25
2017-08-22T08:59:15.991Z,18.30
2017-08-22T09:01:43.379Z,18.37
2017-08-22T09:04:10.770Z,18.53
2017-08-22T09:06:38.158Z,18.52
2017-08-22T09:09:05.554Z,18.50
2017-08-22T09:11:32.940Z,18.47
2017-08-22T09:14:00.572Z,18.54
2017-08-22T09:16:27.964Z,18.42
2017-08-22T09:18:55.364Z,18.43
2017-08-22T09:21:22.752Z,18.49
2017-08-22T09:23:50.147Z,18.62
2017-08-22T09:26:17.546Z,18.59
2017-08-22T09:28:44.934Z,18.63
2017-08-22T09:31:12.343Z,18.61
2017-08-22T09:33:39.730Z,18.57
2017-08-22T09:36:07.118Z,18.59
2017-08-22T09:38:34.718Z,18.55
2017-08-22T09:41:02.120Z,18.83
2017-08-22T09:43:29.503Z,18.95
2017-08-22T09:45:56.903Z,19.09
2017-08-22T09:48:24.292Z,19.23
2017-08-22T09:50:51.698Z,19.21
2017-08-22T09:53:19.090Z,19.07
2017-08-22T09:55:46.499Z,19.07
2017-08-22T09:58:13.891Z,19.17
2017-08-22T10:00:41.287Z,19.06
2017-08-22T10:03:08.686Z,19.16
2017-08-22T10:05:36.072Z,19.20
2017-08-22T10:08:03.463Z,19.23
2017-08-22T10:10:30.850Z,19.15
2017-08-22T10:12:58.255Z,19.09
2017-08-22T10:15:25.644Z,18.99
2017-08-22T10:17:53.067Z,18.97
2017-08-22T10:20:20.451Z,18.98
2017-08-22T10:22:47.847Z,19.01
2017-08-22T10:25:15.448Z,19.02
2017-08-22T10:27:42.855Z,19.10
2017-08-22T10:30:10.254Z,19.19
2017-08-22T10:32:37.635Z,19.18
2017-08-22T10:35:05.067Z,19.23
2017-08-22T10:37:32.460Z,19.39
2017-08-22T10:40:00.060Z,19.36
2017-08-22T10:42:27.659Z,19.34
2017-08-22T10:44:55.266Z,19.29
2017-08-22T10:47:22.889Z,19.33
2017-08-22T10:49:50.287Z,19.30
2017-08-22T10:52:17.678Z,19.26
2017-08-22T10:54:45.083Z,19.18
2017-08-22T10:57:12.466Z,19.21
2017-08-22T10:59:39.870Z,19.17
2017-08-22T11:02:07.254Z,19.24
2017-08-22T11:04:34.651Z,19.37
2017-08-22T11:07:02.043Z,19.44
2017-08-22T11:09:29.439Z,19.41
2017-08-22T11:11:56.839Z,19.36
2017-08-22T11:14:24.456Z,19.39
2017-08-22T11:16:51.854Z,19.30
2017-08-22T11:19:19.246Z,19.28
2017-08-22T11:21:46.631Z,19.43
2017-08-22T11:24:14.055Z,19.48
2017-08-22T11:26:41.431Z,19.50
2017-08-22T11:29:08.842Z,19.51
2017-08-22T11:31:36.245Z,19.58
2017-08-22T11:34:03.637Z,19.80
2017-08-22T11:36:31.042Z,19.84
2017-08-22T11:38:58.434Z,19.77
2017-08-22T11:41:25.827Z,19.70
2017-08-22T11:43:53.243Z,19.71
2017-08-22T11:46:20.652Z,19.77
2017-08-22T11:48:48.039Z,19.74
2017-08-22T11:51:15.440Z,19.93
2017-08-22T11:53:42.827Z,20.06
2017-08-22T11:56:10.230Z,20.14
2017-08-22T11:58:37.623Z,20.27
2017-08-22T12:01:05.022Z,20.44
2017-08-22T12:03:32.417Z,20.18
2017-08-22T12:06:00.050Z,20.10
2017-08-22T12:08:27.428Z,20.18
2017-08-22T12:10:54.826Z,20.16
2017-08-22T12:13:22.220Z,20.16
2017-08-22T12:15:49.618Z,20.18
2017-08-22T12:18:17.016Z,20.32
2017-08-22T12:20:44.423Z,20.47
2017-08-22T12:23:11.812Z,20.48
2017-08-22T12:25:39.215Z,20.41
2017-08-22T12:28:06.604Z,20.30
2017-08-22T12:30:34.007Z,20.29
2017-08-22T12:33:01.387Z,20.51
2017-08-22T12:35:28.808Z,20.62
2017-08-22T12:37:56.194Z,20.84
2017-08-22T12:40:23.597Z,20.86
2017-08-22T12:42:50.999Z,20.99
2017-08-22T12:45:18.391Z,21.12
2017-08-22T12:47:45.791Z,21.03
2017-08-22T12:50:13.186Z,21.13
2017-08-22T12:52:40.590Z,21.09
2017-08-22T12:55:07.978Z,20.91
2017-08-22T12:57:35.379Z,20.85
2017-08-22T13:00:02.784Z,20.87
2017-08-22T13:02:30.182Z,20.87
2017-08-22T13:04:57.572Z,20.91
2017-08-22T13:07:24.990Z,20.90
2017-08-22T13:09:52.373Z,20.78
2017-08-22T13:12:19.793Z,20.83
2017-08-22T13:14:47.223Z,20.98
2017-08-22T13:17:14.833Z,21.11
2017-08-22T13:19:42.231Z,21.11
2017-08-22T13:22:09.636Z,21.19
2017-08-22T13:24:37.033Z,21.26
2017-08-22T13:27:04.715Z,21.34
2017-08-22T13:29:32.100Z,21.38
2017-08-22T13:31:59.496Z,21.40
2017-08-22T13:34:26.909Z,21.37
2017-08-22T13:36:54.295Z,21.27
2017-08-22T13:39:21.704Z,21.26
2017-08-22T13:41:49.084Z,21.18
2017-08-22T13:44:16.488Z,21.29
2017-08-22T13:46:43.889Z,21.38
2017-08-22T13:49:11.274Z,21.48
2017-08-22T13:51:38.671Z,21.36
2017-08-22T13:54:06.084Z,21.25
2017-08-22T13:56:33.474Z,21.22
2017-08-22T13:59:00.864Z,21.20
2017-08-22T14:01:28.475Z,21.13
2017-08-22T14:03:55.867Z,21.13
2017-08-22T14:06:23.271Z,21.18
2017-08-22T14:08:50.671Z,21.12
2017-08-22T14:11:18.062Z,21.02
2017-08-22T14:13:45.451Z,21.13
2017-08-22T14:16:12.856Z,21.26
2017-08-22T14:18:41.054Z,21.27
2017-08-22T14:21:08.454Z,21.35
2017-08-22T14:23:35.851Z,21.27
2017-08-22T14:26:03.255Z,21.28
2017-08-22T14:28:30.642Z,21.36
2017-08-22T14:30:58.043Z,21.41
2017-08-22T14:33:25.644Z,21.45
2017-08-22T14:35:53.036Z,21.41
2017-08-22T14:38:20.414Z,21.31
2017-08-22T14:40:47.811Z,21.24
2017-08-22T14:43:15.200Z,21.23
2017-08-22T14:45:42.623Z,21.04
2017-08-22T14:48:10.227Z,21.07
2017-08-22T14:50:37.615Z,21.18
2017-08-22T14:53:05.015Z,21.23
2017-08-22T14:55:32.406Z,21.22
2017-08-22T14:57:59.811Z,21.12
2017-08-22T15:00:27.302Z,21.05
2017-08-22T15:02:54.682Z,20.96
2017-08-22T15:05:22.079Z,20.82
2017-08-22T15:07:49.478Z,20.87
2017-08-22T15:10:16.867Z,20.87
2017-08-22T15:12:44.260Z,20.88
2017-08-22T15:15:11.647Z,20.81
2017-08-22T15:17:39.077Z,20.85
2017-08-22T15:20:06.468Z,20.88
2017-08-22T15:22:33.872Z,20.82
2017-08-22T15:25:01.252Z,20.82
2017-08-22T15:27:28.635Z,20.75
2017-08-22T15:29:56.043Z,20.65
2017-08-22T15:32:23.431Z,20.66
2017-08-22T15:34:50.840Z,20.50
2017-08-22T15:37:18.221Z,20.50
2017-08-22T15:39:45.623Z,20.57
2017-08-22T15:42:13.028Z,20.74
2017-08-22T15:44:40.626Z,20.93
2017-08-22T15:47:08.023Z,20.92
2017-08-22T15:49:35.427Z,21.00
2017-08-22T15:52:02.811Z,21.08
2017-08-22T15:54:30.214Z,21.17
2017-08-22T15:56:57.612Z,21.22
2017-08-22T15:59:25.012Z,21.12
2017-08-22T16:01:52.434Z,21.12
2017-08-22T16:04:19.818Z,21.10
2017-08-22T16:06:47.210Z,21.18
2017-08-22T16:09:14.604Z,21.31
2017-08-22T16:11:42.002Z,21.10
2017-08-22T16:14:09.396Z,21.21
2017-08-22T16:16:36.796Z,21.37
2017-08-22T16:19:04.198Z,21.41
2017-08-22T16:21:31.590Z,21.48
2017-08-22T16:23:58.980Z,21.49
2017-08-22T16:26:26.387Z,21.47
2017-08-22T16:28:53.775Z,21.40
2017-08-22T16:31:21.193Z,21.18
2017-08-22T16:33:48.574Z,21.18
2017-08-22T16:36:15.972Z,21.05
2017-08-22T16:38:43.370Z,20.93
2017-08-22T16:41:10.779Z,20.80
2017-08-22T16:43:38.179Z,20.82
2017-08-22T16:46:05.582Z,20.79
2017-08-22T16:48:32.970Z,20.80
2017-08-22T16:51:00.388Z,20.87
2017-08-22T16:53:27.779Z,20.80
2017-08-22T16:55:55.183Z,20.79
2017-08-22T16:58:22.574Z,20.91
2017-08-22T17:00:49.979Z,20.89
2017-08-22T17:03:17.374Z,20.94
2017-08-22T17:05:44.759Z,20.99
2017-08-22T17:08:12.166Z,21.03
2017-08-22T17:10:39.551Z,21.10
2017-08-22T17:13:06.947Z,21.22
2017-08-22T17:15:34.344Z,21.23
2017-08-22T17:18:01.757Z,21.21
2017-08-22T17:20:29.158Z,21.29
2017-08-22T17:22:56.554Z,21.37
2017-08-22T17:25:23.945Z,21.36
2017-08-22T17:27:51.340Z,21.38
2017-08-22T17:30:18.950Z,21.33
2017-08-22T17:32:46.446Z,21.30
2017-08-22T17:35:13.834Z,21.19
2017-08-22T17:37:41.220Z,21.14
2017-08-22T17:40:08.616Z,21.20
2017-08-22T17:42:36.002Z,21.02
2017-08-22T17:45:03.390Z,20.98
2017-08-22T17:47:30.783Z,20.88
2017-08-22T17:49:58.183Z,20.82
2017-08-22T17:52:25.602Z,20.77
2017-08-22T17:54:53.212Z,20.82
2017-08-22T17:57:20.603Z,20.87
2017-08-22T17:59:48.006Z,20.88
2017-08-22T18:02:15.423Z,20.94
2017-08-22T18:04:42.825Z,20.90
2017-08-22T18:07:10.221Z,20.93
2017-08-22T18:09:37.604Z,21.00
2017-08-22T18:12:05.011Z,21.01
2017-08-22T18:14:32.399Z,21.00
2017-08-22T18:16:59.803Z,20.96
2017-08-22T18:19:27.193Z,21.00
2017-08-22T18:21:54.591Z,20.93
2017-08-22T18:24:21.985Z,20.86
2017-08-22T18:26:49.406Z,20.87
2017-08-22T18:29:17.026Z,20.90
2017-08-22T18:31:44.626Z,20.91
2017-08-22T18:34:12.030Z,20.90
2017-08-22T18:36:39.423Z,20.84
2017-08-22T18:39:06.823Z,20.85
2017-08-22T18:41:34.227Z,20.84
2017-08-22T18:44:01.615Z,20.77
2017-08-22T18:46:29.010Z,20.75
2017-08-22T18:48:56.394Z,20.70
2017-08-22T18:51:23.795Z,20.59
2017-08-22T18:53:51.189Z,20.52
2017-08-22T18:56:20.087Z,20.51
2017-08-22T18:58:47.498Z,20.53
2017-08-22T19:01:17.582Z,20.48
2017-08-22T19:03:44.990Z,20.47
2017-08-22T19:06:12.380Z,20.45
2017-08-22T19:08:39.779Z,20.47
2017-08-22T19:11:07.166Z,20.43
2017-08-22T19:13:34.568Z,20.28
2017-08-22T19:16:01.963Z,20.35
2017-08-22T19:18:35.593Z,20.21
2017-08-22T19:21:03.194Z,20.26
2017-08-22T19:23:30.809Z,20.27
2017-08-22T19:25:58.218Z,20.25
2017-08-22T19:28:25.635Z,20.17
2017-08-22T19:30:53.011Z,20.06
2017-08-22T19:33:20.411Z,20.01
2017-08-22T19:35:47.799Z,19.96
2017-08-22T19:38:15.187Z,19.96
2017-08-22T19:40:43.616Z,19.94
2017-08-22T19:43:16.294Z,19.87
2017-08-22T19:45:43.686Z,19.95
2017-08-22T19:48:11.079Z,19.91
2017-08-22T19:50:38.476Z,19.91
2017-08-22T19:53:05.868Z,19.83
2017-08-22T19:55:33.301Z,19.71
2017-08-22T19:58:00.699Z,19.61
2017-08-22T20:00:28.107Z,19.54
2017-08-22T20:02:55.530Z,19.49
2017-08-22T20:05:22.911Z,19.56
2017-08-22T20:07:50.296Z,19.58
2017-08-22T20:10:17.703Z,19.34
2017-08-22T20:12:45.083Z,19.41
2017-08-22T20:15:12.479Z,19.42
2017-08-22T20:17:40.136Z,19.41
2017-08-22T20:20:07.543Z,19.20
2017-08-22T20:22:36.283Z,19.18
2017-08-22T20:25:07.176Z,19.31
2017-08-22T20:27:34.574Z,19.15
2017-08-22T20:30:04.182Z,19.14
2017-08-22T20:32:33.004Z,18.89
2017-08-22T20:35:02.162Z,18.90
2017-08-22T20:37:29.597Z,18.90
2017-08-22T20:39:56.974Z,18.90
2017-08-22T20:42:24.430Z,18.84
2017-08-22T20:44:51.833Z,18.75
2017-08-22T20:47:19.235Z,18.68
2017-08-22T20:49:46.617Z,18.63
2017-08-22T20:52:14.022Z,18.63
2017-08-22T20:54:41.411Z,18.59
2017-08-22T20:57:09.629Z,18.59
2017-08-22T20:59:37.007Z,18.64
2017-08-22T21:02:04.403Z,18.65
2017-08-22T21:04:31.805Z,18.60
2017-08-22T21:06:59.207Z,18.61
2017-08-22T21:09:26.595Z,18.41
2017-08-22T21:11:53.998Z,18.27
2017-08-22T21:14:21.391Z,18.16
2017-08-22T21:16:48.795Z,18.23
2017-08-22T21:19:16.182Z,18.22
2017-08-22T21:21:43.579Z,18.15
2017-08-22T21:24:10.979Z,18.27
2017-08-22T21:26:38.362Z,18.30
2017-08-22T21:29:05.772Z,18.34
2017-08-22T21:31:33.171Z,18.33
2017-08-22T21:34:00.568Z,18.15
2017-08-22T21:36:28.001Z,18.14
2017-08-22T21:38:55.394Z,18.11
2017-08-22T21:41:22.790Z,18.10
2017-08-22T21:43:50.440Z,17.95
2017-08-22T21:46:17.830Z,17.97
2017-08-22T21:48:45.219Z,17.99
2017-08-22T21:51:12.608Z,17.92
2017-08-22T21:53:40.005Z,17.82
2017-08-22T21:56:07.383Z,17.63
2017-08-22T21:58:34.783Z,17.46
2017-08-22T22:01:02.162Z,17.44
2017-08-22T22:03:29.571Z,17.29
2017-08-22T22:05:56.972Z,17.22
2017-08-22T22:08:24.354Z,17.10
2017-08-22T22:10:51.758Z,17.15
2017-08-22T22:13:19.154Z,17.16
2017-08-22T22:15:46.559Z,17.07
2017-08-22T22:18:13.947Z,17.01
2017-08-22T22:20:41.356Z,16.89
2017-08-22T22:23:08.764Z,16.96
2017-08-22T22:25:36.147Z,16.98
2017-08-22T22:28:03.546Z,16.96
2017-08-22T22:30:30.948Z,16.88
2017-08-22T22:32:58.652Z,16.99
2017-08-22T22:35:26.050Z,17.09
2017-08-22T22:37:53.449Z,17.08
2017-08-22T22:40:20.849Z,17.18
2017-08-22T22:42:48.247Z,17.20
2017-08-22T22:45:15.638Z,17.07
2017-08-22T22:47:43.031Z,17.16
2017-08-22T22:50:10.426Z,17.04
2017-08-22T22:52:37.823Z,16.94
2017-08-22T22:55:05.214Z,16.74
2017-08-22T22:57:32.614Z,16.72
2017-08-22T23:00:00.004Z,16.77
2017-08-22T23:02:27.407Z,16.88
2017-08-22T23:04:55.074Z,16.59
2017-08-22T23:07:22.471Z,16.43
2017-08-22T23:09:50.091Z,16.34
2017-08-22T23:12:17.498Z,16.18
2017-08-22T23:14:44.884Z,16.12
2017-08-22T23:17:12.291Z,16.33
2017-08-22T23:19:39.671Z,16.29
2017-08-22T23:22:07.067Z,16.18
2017-08-22T23:24:34.456Z,16.27
2017-08-22T23:27:01.858Z,16.11
2017-08-22T23:29:29.252Z,16.21
2017-08-22T23:31:56.661Z,16.23
2017-08-22T23:34:24.355Z,16.15
2017-08-22T23:36:51.759Z,16.09
2017-08-22T23:39:19.155Z,16.05
2017-08-22T23:41:46.548Z,15.97
2017-08-22T23:44:13.947Z,15.83
2017-08-22T23:46:41.336Z,15.79
2017-08-22T23:49:08.730Z,15.74
2017-08-22T23:51:36.115Z,15.73
2017-08-22T23:54:03.519Z,15.74
2017-08-22T23:56:30.919Z,15.84
2017-08-22T23:58:58.318Z,15.95
